sensor_id;sensor_type;location;lat;lon;timestamp;P1;durP1;ratioP1;P2;durP2;ratioP2
50906;SDS011;36882;27.680;85.304;2022-07-29T00:02:04;19.33;;;9.20;;
50906;SDS011;36882;27.680;85.304;2022-07-29T00:04:35;18.83;;;10.23;;
50906;SDS011;36882;27.680;85.304;2022-07-29T00:07:05;20.00;;;9.23;;
50906;SDS011;36882;27.680;85.304;2022-07-29T00:09:37;22.60;;;11.40;;
50906;SDS011;36882;27.680;85.304;2022-07-29T00:12:19;19.60;;;9.93;;
50906;SDS011;36882;27.680;85.304;2022-07-29T00:14:53;19.73;;;11.38;;
50906;SDS011;36882;27.680;85.304;2022-07-29T00:17:25;14.65;;;9.38;;
50906;SDS011;36882;27.680;85.304;2022-07-29T00:19:55;17.27;;;10.55;;
50906;SDS011;36882;27.680;85.304;2022-07-29T00:22:25;17.10;;;9.52;;
50906;SDS011;36882;27.680;85.304;2022-07-29T00:24:56;12.45;;;9.73;;
50906;SDS011;36882;27.680;85.304;2022-07-29T00:27:26;19.55;;;10.23;;
50906;SDS011;36882;27.680;85.304;2022-07-29T00:29:56;17.50;;;9.85;;
50906;SDS011;36882;27.680;85.304;2022-07-29T00:32:27;17.40;;;9.80;;
50906;SDS011;36882;27.680;85.304;2022-07-29T00:34:57;19.10;;;11.68;;
50906;SDS011;36882;27.680;85.304;2022-07-29T00:37:45;17.55;;;9.85;;
50906;SDS011;36882;27.680;85.304;2022-07-29T00:40:16;16.45;;;10.60;;
50906;SDS011;36882;27.680;85.304;2022-07-29T00:42:49;17.73;;;9.48;;
50906;SDS011;36882;27.680;85.304;2022-07-29T00:45:21;18.05;;;10.43;;
50906;SDS011;36882;27.680;85.304;2022-07-29T00:47:51;22.50;;;11.02;;
50906;SDS011;36882;27.680;85.304;2022-07-29T00:50:21;21.88;;;11.05;;
50906;SDS011;36882;27.680;85.304;2022-07-29T00:52:53;19.13;;;11.82;;
50906;SDS011;36882;27.680;85.304;2022-07-29T00:55:23;20.05;;;12.52;;
50906;SDS011;36882;27.680;85.304;2022-07-29T00:57:54;28.48;;;13.30;;
50906;SDS011;36882;27.680;85.304;2022-07-29T01:00:26;22.50;;;11.88;;
50906;SDS011;36882;27.680;85.304;2022-07-29T01:02:58;21.58;;;12.20;;
50906;SDS011;36882;27.680;85.304;2022-07-29T01:05:30;18.33;;;11.75;;
50906;SDS011;36882;27.680;85.304;2022-07-29T01:08:17;25.05;;;11.38;;
50906;SDS011;36882;27.680;85.304;2022-07-29T01:10:48;16.83;;;10.82;;
50906;SDS011;36882;27.680;85.304;2022-07-29T01:13:20;16.85;;;9.75;;
50906;SDS011;36882;27.680;85.304;2022-07-29T01:15:59;12.02;;;8.63;;
50906;SDS011;36882;27.680;85.304;2022-07-29T01:18:37;15.25;;;10.93;;
50906;SDS011;36882;27.680;85.304;2022-07-29T01:21:21;22.60;;;11.05;;
50906;SDS011;36882;27.680;85.304;2022-07-29T01:24:27;21.25;;;9.30;;
50906;SDS011;36882;27.680;85.304;2022-07-29T01:30:12;15.00;;;10.65;;
50906;SDS011;36882;27.680;85.304;2022-07-29T01:32:43;17.75;;;9.95;;
50906;SDS011;36882;27.680;85.304;2022-07-29T01:35:23;23.10;;;11.20;;
50906;SDS011;36882;27.680;85.304;2022-07-29T01:38:05;15.70;;;9.65;;
50906;SDS011;36882;27.680;85.304;2022-07-29T01:40:51;19.98;;;10.20;;
50906;SDS011;36882;27.680;85.304;2022-07-29T01:43:27;12.75;;;8.25;;
50906;SDS011;36882;27.680;85.304;2022-07-29T01:46:06;12.95;;;8.82;;
50906;SDS011;36882;27.680;85.304;2022-07-29T01:48:45;16.40;;;10.20;;
50906;SDS011;36882;27.680;85.304;2022-07-29T01:51:24;14.30;;;10.25;;
50906;SDS011;36882;27.680;85.304;2022-07-29T01:56:49;19.38;;;9.60;;
50906;SDS011;36882;27.680;85.304;2022-07-29T01:59:22;23.05;;;10.73;;
50906;SDS011;36882;27.680;85.304;2022-07-29T02:01:57;18.45;;;11.73;;
50906;SDS011;36882;27.680;85.304;2022-07-29T02:04:30;24.67;;;11.23;;
50906;SDS011;36882;27.680;85.304;2022-07-29T02:07:03;24.65;;;12.13;;
50906;SDS011;36882;27.680;85.304;2022-07-29T02:09:39;17.80;;;10.73;;
50906;SDS011;36882;27.680;85.304;2022-07-29T02:12:11;21.25;;;12.75;;
50906;SDS011;36882;27.680;85.304;2022-07-29T02:14:44;27.60;;;13.27;;
50906;SDS011;36882;27.680;85.304;2022-07-29T02:17:26;19.17;;;12.45;;
50906;SDS011;36882;27.680;85.304;2022-07-29T02:20:05;20.98;;;14.02;;
50906;SDS011;36882;27.680;85.304;2022-07-29T02:22:38;18.73;;;13.20;;
50906;SDS011;36882;27.680;85.304;2022-07-29T02:25:10;25.88;;;13.05;;
50906;SDS011;36882;27.680;85.304;2022-07-29T02:27:43;20.88;;;14.10;;
50906;SDS011;36882;27.680;85.304;2022-07-29T02:30:16;28.75;;;15.13;;
50906;SDS011;36882;27.680;85.304;2022-07-29T02:32:47;22.98;;;13.27;;
50906;SDS011;36882;27.680;85.304;2022-07-29T02:35:20;20.75;;;14.93;;
50906;SDS011;36882;27.680;85.304;2022-07-29T02:37:51;20.15;;;15.10;;
50906;SDS011;36882;27.680;85.304;2022-07-29T02:40:39;31.67;;;16.15;;
50906;SDS011;36882;27.680;85.304;2022-07-29T02:43:12;30.02;;;16.75;;
50906;SDS011;36882;27.680;85.304;2022-07-29T02:45:43;26.40;;;16.40;;
50906;SDS011;36882;27.680;85.304;2022-07-29T02:48:17;30.67;;;18.83;;
50906;SDS011;36882;27.680;85.304;2022-07-29T02:50:58;26.25;;;19.50;;
50906;SDS011;36882;27.680;85.304;2022-07-29T02:53:38;32.13;;;20.25;;
50906;SDS011;36882;27.680;85.304;2022-07-29T02:56:11;32.83;;;19.85;;
50906;SDS011;36882;27.680;85.304;2022-07-29T02:58:49;31.75;;;20.77;;
50906;SDS011;36882;27.680;85.304;2022-07-29T03:01:23;27.52;;;22.02;;
50906;SDS011;36882;27.680;85.304;2022-07-29T03:03:57;36.55;;;22.38;;
50906;SDS011;36882;27.680;85.304;2022-07-29T03:06:32;27.60;;;19.48;;
50906;SDS011;36882;27.680;85.304;2022-07-29T03:09:06;30.45;;;20.50;;
50906;SDS011;36882;27.680;85.304;2022-07-29T03:11:39;31.52;;;21.67;;
50906;SDS011;36882;27.680;85.304;2022-07-29T03:14:17;39.72;;;22.52;;
50906;SDS011;36882;27.680;85.304;2022-07-29T03:16:49;36.33;;;21.17;;
50906;SDS011;36882;27.680;85.304;2022-07-29T03:19:20;31.25;;;21.40;;
50906;SDS011;36882;27.680;85.304;2022-07-29T03:21:51;24.10;;;18.00;;
50906;SDS011;36882;27.680;85.304;2022-07-29T03:24:25;28.33;;;18.00;;
50906;SDS011;36882;27.680;85.304;2022-07-29T03:27:00;28.40;;;16.55;;
50906;SDS011;36882;27.680;85.304;2022-07-29T03:29:32;24.70;;;15.75;;
50906;SDS011;36882;27.680;85.304;2022-07-29T03:32:04;32.03;;;19.23;;
50906;SDS011;36882;27.680;85.304;2022-07-29T03:34:36;34.65;;;17.80;;
50906;SDS011;36882;27.680;85.304;2022-07-29T03:37:06;27.48;;;16.48;;
50906;SDS011;36882;27.680;85.304;2022-07-29T03:39:38;31.45;;;17.73;;
50906;SDS011;36882;27.680;85.304;2022-07-29T03:42:11;37.05;;;20.05;;
50906;SDS011;36882;27.680;85.304;2022-07-29T03:44:45;25.30;;;17.90;;
50906;SDS011;36882;27.680;85.304;2022-07-29T03:47:19;32.97;;;17.48;;
50906;SDS011;36882;27.680;85.304;2022-07-29T03:50:12;23.90;;;17.92;;
50906;SDS011;36882;27.680;85.304;2022-07-29T03:52:45;26.55;;;18.83;;
50906;SDS011;36882;27.680;85.304;2022-07-29T03:55:19;31.73;;;19.17;;
50906;SDS011;36882;27.680;85.304;2022-07-29T03:57:50;22.13;;;15.60;;
50906;SDS011;36882;27.680;85.304;2022-07-29T04:00:21;28.13;;;19.00;;
50906;SDS011;36882;27.680;85.304;2022-07-29T04:02:52;24.23;;;18.48;;
50906;SDS011;36882;27.680;85.304;2022-07-29T04:05:23;24.08;;;19.95;;
50906;SDS011;36882;27.680;85.304;2022-07-29T04:07:53;25.63;;;19.15;;
50906;SDS011;36882;27.680;85.304;2022-07-29T04:10:24;32.15;;;22.20;;
50906;SDS011;36882;27.680;85.304;2022-07-29T04:12:58;30.77;;;19.75;;
50906;SDS011;36882;27.680;85.304;2022-07-29T04:15:28;32.95;;;20.38;;
50906;SDS011;36882;27.680;85.304;2022-07-29T04:17:59;28.77;;;17.67;;
50906;SDS011;36882;27.680;85.304;2022-07-29T04:20:29;27.50;;;16.90;;
50906;SDS011;36882;27.680;85.304;2022-07-29T04:23:00;28.58;;;15.70;;
50906;SDS011;36882;27.680;85.304;2022-07-29T04:25:30;22.30;;;13.70;;
50906;SDS011;36882;27.680;85.304;2022-07-29T04:28:01;31.02;;;16.27;;
50906;SDS011;36882;27.680;85.304;2022-07-29T04:30:32;22.63;;;16.35;;
50906;SDS011;36882;27.680;85.304;2022-07-29T04:33:04;20.27;;;13.68;;
50906;SDS011;36882;27.680;85.304;2022-07-29T04:35:36;21.50;;;13.15;;
50906;SDS011;36882;27.680;85.304;2022-07-29T04:38:16;22.50;;;14.45;;
50906;SDS011;36882;27.680;85.304;2022-07-29T04:40:46;20.63;;;12.23;;
50906;SDS011;36882;27.680;85.304;2022-07-29T04:43:17;18.00;;;10.30;;
50906;SDS011;36882;27.680;85.304;2022-07-29T04:45:49;20.17;;;12.15;;
50906;SDS011;36882;27.680;85.304;2022-07-29T04:48:19;22.63;;;11.95;;
50906;SDS011;36882;27.680;85.304;2022-07-29T04:50:55;17.88;;;9.70;;
50906;SDS011;36882;27.680;85.304;2022-07-29T04:53:25;16.33;;;9.43;;
50906;SDS011;36882;27.680;85.304;2022-07-29T04:55:56;13.48;;;10.75;;
50906;SDS011;36882;27.680;85.304;2022-07-29T04:58:26;10.73;;;8.45;;
50906;SDS011;36882;27.680;85.304;2022-07-29T05:00:57;11.77;;;8.55;;
50906;SDS011;36882;27.680;85.304;2022-07-29T05:03:27;8.18;;;6.28;;
50906;SDS011;36882;27.680;85.304;2022-07-29T05:05:58;8.77;;;6.95;;
50906;SDS011;36882;27.680;85.304;2022-07-29T05:08:28;9.23;;;7.10;;
50906;SDS011;36882;27.680;85.304;2022-07-29T05:10:58;10.43;;;7.28;;
50906;SDS011;36882;27.680;85.304;2022-07-29T05:13:48;7.88;;;6.53;;
50906;SDS011;36882;27.680;85.304;2022-07-29T05:16:18;11.68;;;6.10;;
50906;SDS011;36882;27.680;85.304;2022-07-29T05:18:53;10.00;;;6.40;;
50906;SDS011;36882;27.680;85.304;2022-07-29T05:21:23;10.20;;;7.25;;
50906;SDS011;36882;27.680;85.304;2022-07-29T05:23:53;18.45;;;8.30;;
50906;SDS011;36882;27.680;85.304;2022-07-29T05:26:24;9.80;;;7.90;;
50906;SDS011;36882;27.680;85.304;2022-07-29T05:28:54;10.93;;;6.30;;
50906;SDS011;36882;27.680;85.304;2022-07-29T05:31:25;12.07;;;8.43;;
50906;SDS011;36882;27.680;85.304;2022-07-29T05:33:56;10.82;;;7.40;;
50906;SDS011;36882;27.680;85.304;2022-07-29T05:36:26;16.92;;;7.28;;
50906;SDS011;36882;27.680;85.304;2022-07-29T05:38:57;8.90;;;7.60;;
50906;SDS011;36882;27.680;85.304;2022-07-29T05:41:27;11.85;;;8.10;;
50906;SDS011;36882;27.680;85.304;2022-07-29T05:44:00;14.52;;;9.32;;
50906;SDS011;36882;27.680;85.304;2022-07-29T05:46:31;10.95;;;7.90;;
50906;SDS011;36882;27.680;85.304;2022-07-29T05:49:02;11.32;;;9.63;;
50906;SDS011;36882;27.680;85.304;2022-07-29T05:51:33;12.52;;;9.23;;
50906;SDS011;36882;27.680;85.304;2022-07-29T05:54:04;11.65;;;8.55;;
50906;SDS011;36882;27.680;85.304;2022-07-29T05:56:35;12.13;;;8.57;;
50906;SDS011;36882;27.680;85.304;2022-07-29T05:59:05;10.77;;;8.60;;
50906;SDS011;36882;27.680;85.304;2022-07-29T06:01:43;9.93;;;7.97;;
50906;SDS011;36882;27.680;85.304;2022-07-29T06:04:14;11.75;;;8.25;;
50906;SDS011;36882;27.680;85.304;2022-07-29T06:06:45;9.77;;;7.82;;
50906;SDS011;36882;27.680;85.304;2022-07-29T06:09:16;12.65;;;8.63;;
50906;SDS011;36882;27.680;85.304;2022-07-29T06:11:49;9.77;;;7.72;;
50906;SDS011;36882;27.680;85.304;2022-07-29T06:14:20;13.55;;;8.20;;
50906;SDS011;36882;27.680;85.304;2022-07-29T06:16:50;10.00;;;7.40;;
50906;SDS011;36882;27.680;85.304;2022-07-29T06:19:21;17.67;;;8.52;;
50906;SDS011;36882;27.680;85.304;2022-07-29T06:21:52;11.55;;;7.57;;
50906;SDS011;36882;27.680;85.304;2022-07-29T06:24:23;12.20;;;7.53;;
50906;SDS011;36882;27.680;85.304;2022-07-29T06:26:54;15.18;;;9.20;;
50906;SDS011;36882;27.680;85.304;2022-07-29T06:29:24;14.13;;;9.02;;
50906;SDS011;36882;27.680;85.304;2022-07-29T06:31:55;9.20;;;7.28;;
50906;SDS011;36882;27.680;85.304;2022-07-29T06:34:25;16.98;;;7.78;;
50906;SDS011;36882;27.680;85.304;2022-07-29T06:36:57;16.73;;;8.07;;
50906;SDS011;36882;27.680;85.304;2022-07-29T06:39:27;10.45;;;5.63;;
50906;SDS011;36882;27.680;85.304;2022-07-29T06:41:57;11.70;;;6.75;;
50906;SDS011;36882;27.680;85.304;2022-07-29T06:44:28;15.70;;;7.70;;
50906;SDS011;36882;27.680;85.304;2022-07-29T06:47:00;8.60;;;6.32;;
50906;SDS011;36882;27.680;85.304;2022-07-29T06:49:31;9.57;;;6.55;;
50906;SDS011;36882;27.680;85.304;2022-07-29T06:52:02;10.27;;;7.05;;
50906;SDS011;36882;27.680;85.304;2022-07-29T06:54:36;9.30;;;6.80;;
50906;SDS011;36882;27.680;85.304;2022-07-29T06:57:07;12.80;;;7.32;;
50906;SDS011;36882;27.680;85.304;2022-07-29T06:59:37;13.43;;;7.32;;
50906;SDS011;36882;27.680;85.304;2022-07-29T07:02:08;12.52;;;7.38;;
50906;SDS011;36882;27.680;85.304;2022-07-29T07:04:38;8.65;;;6.68;;
50906;SDS011;36882;27.680;85.304;2022-07-29T07:07:09;10.85;;;5.82;;
50906;SDS011;36882;27.680;85.304;2022-07-29T07:09:39;8.65;;;5.55;;
50906;SDS011;36882;27.680;85.304;2022-07-29T07:12:09;9.90;;;5.00;;
50906;SDS011;36882;27.680;85.304;2022-07-29T07:14:41;11.32;;;4.80;;
50906;SDS011;36882;27.680;85.304;2022-07-29T07:17:11;10.25;;;5.60;;
50906;SDS011;36882;27.680;85.304;2022-07-29T07:19:41;9.10;;;5.63;;
50906;SDS011;36882;27.680;85.304;2022-07-29T07:22:12;10.27;;;5.25;;
50906;SDS011;36882;27.680;85.304;2022-07-29T07:24:42;6.38;;;5.32;;
50906;SDS011;36882;27.680;85.304;2022-07-29T07:27:12;7.07;;;4.95;;
50906;SDS011;36882;27.680;85.304;2022-07-29T07:29:43;8.98;;;5.70;;
50906;SDS011;36882;27.680;85.304;2022-07-29T07:32:13;10.07;;;6.53;;
50906;SDS011;36882;27.680;85.304;2022-07-29T07:34:45;12.05;;;6.15;;
50906;SDS011;36882;27.680;85.304;2022-07-29T07:37:15;10.55;;;5.63;;
50906;SDS011;36882;27.680;85.304;2022-07-29T07:39:47;11.00;;;4.97;;
50906;SDS011;36882;27.680;85.304;2022-07-29T07:42:18;8.13;;;6.25;;
50906;SDS011;36882;27.680;85.304;2022-07-29T07:44:49;10.70;;;6.05;;
50906;SDS011;36882;27.680;85.304;2022-07-29T07:47:38;8.95;;;5.40;;
50906;SDS011;36882;27.680;85.304;2022-07-29T07:50:10;12.10;;;6.45;;
50906;SDS011;36882;27.680;85.304;2022-07-29T07:52:47;8.30;;;5.88;;
50906;SDS011;36882;27.680;85.304;2022-07-29T07:55:19;9.80;;;5.80;;
50906;SDS011;36882;27.680;85.304;2022-07-29T07:57:50;12.43;;;6.32;;
50906;SDS011;36882;27.680;85.304;2022-07-29T08:00:21;9.73;;;7.07;;
50906;SDS011;36882;27.680;85.304;2022-07-29T08:02:52;9.43;;;6.90;;
50906;SDS011;36882;27.680;85.304;2022-07-29T08:05:22;7.82;;;5.72;;
50906;SDS011;36882;27.680;85.304;2022-07-29T08:07:52;16.98;;;9.70;;
50906;SDS011;36882;27.680;85.304;2022-07-29T08:10:23;22.15;;;8.40;;
50906;SDS011;36882;27.680;85.304;2022-07-29T08:13:07;11.60;;;6.80;;
50906;SDS011;36882;27.680;85.304;2022-07-29T08:15:40;12.02;;;8.55;;
50906;SDS011;36882;27.680;85.304;2022-07-29T08:18:12;13.30;;;7.25;;
50906;SDS011;36882;27.680;85.304;2022-07-29T08:20:43;13.05;;;7.65;;
50906;SDS011;36882;27.680;85.304;2022-07-29T08:23:13;10.15;;;6.90;;
50906;SDS011;36882;27.680;85.304;2022-07-29T08:25:44;9.77;;;7.45;;
50906;SDS011;36882;27.680;85.304;2022-07-29T08:28:16;13.75;;;8.70;;
50906;SDS011;36882;27.680;85.304;2022-07-29T08:30:51;10.00;;;7.70;;
50906;SDS011;36882;27.680;85.304;2022-07-29T08:33:22;13.95;;;7.60;;
50906;SDS011;36882;27.680;85.304;2022-07-29T08:35:52;11.57;;;9.77;;
50906;SDS011;36882;27.680;85.304;2022-07-29T08:38:22;14.00;;;8.25;;
50906;SDS011;36882;27.680;85.304;2022-07-29T08:40:54;11.13;;;6.38;;
50906;SDS011;36882;27.680;85.304;2022-07-29T08:43:25;11.38;;;7.15;;
50906;SDS011;36882;27.680;85.304;2022-07-29T08:45:57;11.50;;;7.97;;
50906;SDS011;36882;27.680;85.304;2022-07-29T08:48:27;11.65;;;6.93;;
50906;SDS011;36882;27.680;85.304;2022-07-29T08:50:58;10.70;;;7.32;;
50906;SDS011;36882;27.680;85.304;2022-07-29T08:53:31;12.95;;;8.25;;
50906;SDS011;36882;27.680;85.304;2022-07-29T08:56:02;15.85;;;7.53;;
50906;SDS011;36882;27.680;85.304;2022-07-29T08:58:33;10.45;;;7.55;;
50906;SDS011;36882;27.680;85.304;2022-07-29T09:01:05;14.75;;;7.25;;
50906;SDS011;36882;27.680;85.304;2022-07-29T09:03:40;14.20;;;7.15;;
50906;SDS011;36882;27.680;85.304;2022-07-29T09:06:13;12.75;;;6.30;;
50906;SDS011;36882;27.680;85.304;2022-07-29T09:08:46;9.38;;;7.60;;
50906;SDS011;36882;27.680;85.304;2022-07-29T09:11:17;8.48;;;6.85;;
50906;SDS011;36882;27.680;85.304;2022-07-29T09:13:47;10.60;;;6.65;;
50906;SDS011;36882;27.680;85.304;2022-07-29T09:16:18;12.77;;;7.00;;
50906;SDS011;36882;27.680;85.304;2022-07-29T09:19:22;10.13;;;5.50;;
50906;SDS011;36882;27.680;85.304;2022-07-29T09:21:57;12.30;;;6.93;;
50906;SDS011;36882;27.680;85.304;2022-07-29T09:24:38;11.55;;;7.72;;
50906;SDS011;36882;27.680;85.304;2022-07-29T09:27:18;11.35;;;7.55;;
50906;SDS011;36882;27.680;85.304;2022-07-29T09:29:56;12.55;;;9.45;;
50906;SDS011;36882;27.680;85.304;2022-07-29T09:32:27;14.82;;;8.63;;
50906;SDS011;36882;27.680;85.304;2022-07-29T09:35:14;26.48;;;9.55;;
50906;SDS011;36882;27.680;85.304;2022-07-29T09:37:46;16.48;;;9.10;;
50906;SDS011;36882;27.680;85.304;2022-07-29T09:40:19;17.00;;;8.55;;
50906;SDS011;36882;27.680;85.304;2022-07-29T09:42:51;17.42;;;9.88;;
50906;SDS011;36882;27.680;85.304;2022-07-29T09:45:29;17.58;;;11.93;;
50906;SDS011;36882;27.680;85.304;2022-07-29T09:48:18;19.00;;;10.57;;
50906;SDS011;36882;27.680;85.304;2022-07-29T09:50:51;12.05;;;10.25;;
50906;SDS011;36882;27.680;85.304;2022-07-29T09:56:09;21.45;;;13.38;;
50906;SDS011;36882;27.680;85.304;2022-07-29T09:58:39;14.85;;;9.43;;
50906;SDS011;36882;27.680;85.304;2022-07-29T10:01:09;12.55;;;9.68;;
50906;SDS011;36882;27.680;85.304;2022-07-29T10:03:56;16.20;;;11.40;;
50906;SDS011;36882;27.680;85.304;2022-07-29T10:06:27;22.42;;;14.02;;
50906;SDS011;36882;27.680;85.304;2022-07-29T10:11:40;15.32;;;9.77;;
50906;SDS011;36882;27.680;85.304;2022-07-29T10:14:15;19.63;;;11.07;;
50906;SDS011;36882;27.680;85.304;2022-07-29T10:16:46;22.67;;;13.65;;
50906;SDS011;36882;27.680;85.304;2022-07-29T10:19:17;23.40;;;12.15;;
50906;SDS011;36882;27.680;85.304;2022-07-29T10:21:48;15.73;;;10.75;;
50906;SDS011;36882;27.680;85.304;2022-07-29T10:24:25;10.02;;;7.57;;
50906;SDS011;36882;27.680;85.304;2022-07-29T10:26:58;13.13;;;8.43;;
50906;SDS011;36882;27.680;85.304;2022-07-29T10:29:30;20.08;;;9.07;;
50906;SDS011;36882;27.680;85.304;2022-07-29T10:32:10;13.40;;;8.55;;
50906;SDS011;36882;27.680;85.304;2022-07-29T10:34:52;16.05;;;9.15;;
50906;SDS011;36882;27.680;85.304;2022-07-29T10:37:46;20.10;;;10.38;;
50906;SDS011;36882;27.680;85.304;2022-07-29T10:47:28;16.13;;;9.63;;
50906;SDS011;36882;27.680;85.304;2022-07-29T10:50:04;12.98;;;9.95;;
50906;SDS011;36882;27.680;85.304;2022-07-29T10:55:35;17.95;;;9.35;;
50906;SDS011;36882;27.680;85.304;2022-07-29T10:58:17;13.35;;;10.13;;
50906;SDS011;36882;27.680;85.304;2022-07-29T11:00:54;20.35;;;11.88;;
50906;SDS011;36882;27.680;85.304;2022-07-29T11:06:22;20.25;;;12.90;;
50906;SDS011;36882;27.680;85.304;2022-07-29T11:09:24;14.48;;;10.68;;
50906;SDS011;36882;27.680;85.304;2022-07-29T11:12:04;13.52;;;9.48;;
50906;SDS011;36882;27.680;85.304;2022-07-29T11:15:20;15.93;;;9.65;;
50906;SDS011;36882;27.680;85.304;2022-07-29T11:20:45;11.02;;;8.43;;
50906;SDS011;36882;27.680;85.304;2022-07-29T11:23:32;14.80;;;9.40;;
50906;SDS011;36882;27.680;85.304;2022-07-29T11:26:18;15.82;;;9.55;;
50906;SDS011;36882;27.680;85.304;2022-07-29T11:29:25;18.80;;;12.70;;
50906;SDS011;36882;27.680;85.304;2022-07-29T11:31:50;20.63;;;10.98;;
50906;SDS011;36882;27.680;85.304;2022-07-29T11:34:31;16.80;;;10.77;;
50906;SDS011;36882;27.680;85.304;2022-07-29T11:42:44;22.52;;;9.90;;
50906;SDS011;36882;27.680;85.304;2022-07-29T11:45:18;16.25;;;9.38;;
50906;SDS011;36882;27.680;85.304;2022-07-29T11:48:14;17.30;;;11.13;;
50906;SDS011;36882;27.680;85.304;2022-07-29T11:50:59;15.93;;;10.95;;
50906;SDS011;36882;27.680;85.304;2022-07-29T11:53:32;13.98;;;10.70;;
50906;SDS011;36882;27.680;85.304;2022-07-29T11:56:05;15.20;;;10.98;;
50906;SDS011;36882;27.680;85.304;2022-07-29T11:58:42;23.77;;;11.88;;
50906;SDS011;36882;27.680;85.304;2022-07-29T12:01:17;16.77;;;11.82;;
50906;SDS011;36882;27.680;85.304;2022-07-29T12:03:47;19.98;;;12.27;;
50906;SDS011;36882;27.680;85.304;2022-07-29T12:06:34;20.85;;;12.55;;
50906;SDS011;36882;27.680;85.304;2022-07-29T12:09:08;19.70;;;11.80;;
50906;SDS011;36882;27.680;85.304;2022-07-29T12:11:42;18.45;;;12.57;;
50906;SDS011;36882;27.680;85.304;2022-07-29T12:14:26;19.27;;;12.10;;
50906;SDS011;36882;27.680;85.304;2022-07-29T12:17:01;17.27;;;11.35;;
50906;SDS011;36882;27.680;85.304;2022-07-29T12:19:41;21.10;;;11.80;;
50906;SDS011;36882;27.680;85.304;2022-07-29T12:22:32;21.48;;;11.40;;
50906;SDS011;36882;27.680;85.304;2022-07-29T12:25:10;18.55;;;9.38;;
50906;SDS011;36882;27.680;85.304;2022-07-29T12:28:00;17.45;;;10.73;;
50906;SDS011;36882;27.680;85.304;2022-07-29T12:30:36;19.27;;;10.82;;
50906;SDS011;36882;27.680;85.304;2022-07-29T12:33:19;20.02;;;11.23;;
50906;SDS011;36882;27.680;85.304;2022-07-29T12:35:54;21.42;;;11.20;;
50906;SDS011;36882;27.680;85.304;2022-07-29T12:38:37;17.80;;;9.82;;
50906;SDS011;36882;27.680;85.304;2022-07-29T12:41:10;21.48;;;10.10;;
50906;SDS011;36882;27.680;85.304;2022-07-29T12:43:53;20.20;;;10.48;;
50906;SDS011;36882;27.680;85.304;2022-07-29T12:46:24;14.88;;;10.23;;
50906;SDS011;36882;27.680;85.304;2022-07-29T12:48:54;26.08;;;10.35;;
50906;SDS011;36882;27.680;85.304;2022-07-29T12:51:28;22.02;;;11.85;;
50906;SDS011;36882;27.680;85.304;2022-07-29T12:54:06;19.25;;;11.85;;
50906;SDS011;36882;27.680;85.304;2022-07-29T12:56:39;14.45;;;10.10;;
50906;SDS011;36882;27.680;85.304;2022-07-29T12:59:19;28.58;;;11.38;;
50906;SDS011;36882;27.680;85.304;2022-07-29T13:01:52;23.05;;;12.00;;
50906;SDS011;36882;27.680;85.304;2022-07-29T13:04:31;21.55;;;11.48;;
50906;SDS011;36882;27.680;85.304;2022-07-29T13:07:05;13.23;;;10.02;;
50906;SDS011;36882;27.680;85.304;2022-07-29T13:09:41;20.58;;;9.85;;
50906;SDS011;36882;27.680;85.304;2022-07-29T13:12:14;17.45;;;10.63;;
50906;SDS011;36882;27.680;85.304;2022-07-29T13:14:46;19.08;;;10.45;;
50906;SDS011;36882;27.680;85.304;2022-07-29T13:17:19;16.20;;;10.95;;
50906;SDS011;36882;27.680;85.304;2022-07-29T13:20:06;18.55;;;13.27;;
50906;SDS011;36882;27.680;85.304;2022-07-29T13:22:41;23.73;;;11.43;;
50906;SDS011;36882;27.680;85.304;2022-07-29T13:25:12;20.55;;;11.15;;
50906;SDS011;36882;27.680;85.304;2022-07-29T13:27:42;24.10;;;11.45;;
50906;SDS011;36882;27.680;85.304;2022-07-29T13:30:14;20.45;;;12.63;;
50906;SDS011;36882;27.680;85.304;2022-07-29T13:32:45;27.67;;;12.35;;
50906;SDS011;36882;27.680;85.304;2022-07-29T13:35:16;16.98;;;10.60;;
50906;SDS011;36882;27.680;85.304;2022-07-29T13:37:46;15.90;;;9.48;;
50906;SDS011;36882;27.680;85.304;2022-07-29T13:40:19;15.48;;;8.82;;
50906;SDS011;36882;27.680;85.304;2022-07-29T13:42:49;14.07;;;10.55;;
50906;SDS011;36882;27.680;85.304;2022-07-29T13:45:19;18.98;;;11.32;;
50906;SDS011;36882;27.680;85.304;2022-07-29T13:47:54;25.30;;;12.38;;
50906;SDS011;36882;27.680;85.304;2022-07-29T13:50:25;20.83;;;12.27;;
50906;SDS011;36882;27.680;85.304;2022-07-29T13:52:55;29.92;;;15.45;;
50906;SDS011;36882;27.680;85.304;2022-07-29T13:55:26;22.77;;;13.98;;
50906;SDS011;36882;27.680;85.304;2022-07-29T13:57:58;22.13;;;12.18;;
50906;SDS011;36882;27.680;85.304;2022-07-29T14:00:31;19.00;;;11.63;;
50906;SDS011;36882;27.680;85.304;2022-07-29T14:03:02;26.00;;;10.80;;
50906;SDS011;36882;27.680;85.304;2022-07-29T14:05:33;22.40;;;11.27;;
50906;SDS011;36882;27.680;85.304;2022-07-29T14:08:04;16.85;;;10.63;;
50906;SDS011;36882;27.680;85.304;2022-07-29T14:10:34;17.20;;;10.88;;
50906;SDS011;36882;27.680;85.304;2022-07-29T14:13:05;15.20;;;11.10;;
50906;SDS011;36882;27.680;85.304;2022-07-29T14:15:51;21.13;;;11.30;;
50906;SDS011;36882;27.680;85.304;2022-07-29T14:18:22;18.52;;;11.23;;
50906;SDS011;36882;27.680;85.304;2022-07-29T14:20:52;19.60;;;11.45;;
50906;SDS011;36882;27.680;85.304;2022-07-29T14:23:22;27.45;;;13.75;;
50906;SDS011;36882;27.680;85.304;2022-07-29T14:25:53;19.90;;;13.15;;
50906;SDS011;36882;27.680;85.304;2022-07-29T14:28:23;26.20;;;11.95;;
50906;SDS011;36882;27.680;85.304;2022-07-29T14:30:53;21.77;;;11.68;;
50906;SDS011;36882;27.680;85.304;2022-07-29T14:33:24;21.58;;;11.18;;
50906;SDS011;36882;27.680;85.304;2022-07-29T14:35:54;25.95;;;11.35;;
50906;SDS011;36882;27.680;85.304;2022-07-29T14:38:27;21.42;;;11.40;;
50906;SDS011;36882;27.680;85.304;2022-07-29T14:40:59;20.95;;;12.52;;
50906;SDS011;36882;27.680;85.304;2022-07-29T14:43:30;25.48;;;13.43;;
50906;SDS011;36882;27.680;85.304;2022-07-29T14:46:01;25.05;;;12.23;;
50906;SDS011;36882;27.680;85.304;2022-07-29T14:48:34;20.42;;;12.45;;
50906;SDS011;36882;27.680;85.304;2022-07-29T14:51:04;21.98;;;14.13;;
50906;SDS011;36882;27.680;85.304;2022-07-29T14:53:35;18.02;;;14.13;;
50906;SDS011;36882;27.680;85.304;2022-07-29T14:56:05;16.90;;;11.70;;
50906;SDS011;36882;27.680;85.304;2022-07-29T14:58:56;16.90;;;12.25;;
50906;SDS011;36882;27.680;85.304;2022-07-29T15:01:27;17.20;;;11.95;;
50906;SDS011;36882;27.680;85.304;2022-07-29T15:03:57;15.20;;;12.02;;
50906;SDS011;36882;27.680;85.304;2022-07-29T15:06:28;18.42;;;13.80;;
50906;SDS011;36882;27.680;85.304;2022-07-29T15:08:58;17.10;;;13.05;;
50906;SDS011;36882;27.680;85.304;2022-07-29T15:11:33;18.42;;;13.25;;
50906;SDS011;36882;27.680;85.304;2022-07-29T15:14:05;15.80;;;13.10;;
50906;SDS011;36882;27.680;85.304;2022-07-29T15:16:37;18.75;;;14.18;;
50906;SDS011;36882;27.680;85.304;2022-07-29T15:19:14;20.77;;;13.13;;
50906;SDS011;36882;27.680;85.304;2022-07-29T15:21:44;17.73;;;13.70;;
50906;SDS011;36882;27.680;85.304;2022-07-29T15:24:15;18.05;;;12.23;;
50906;SDS011;36882;27.680;85.304;2022-07-29T15:26:47;19.90;;;14.60;;
50906;SDS011;36882;27.680;85.304;2022-07-29T15:29:21;20.45;;;13.43;;